This is the latest recevied weather packets stored in our database for station/object KC4QLP. If no packets are shown the sender has not sent any weather packets the latest 10 day(s).
| Time | Temp. | Humidity | Pressure | Rain* | Wind** | Luminosity | Snow |
|---|---|---|---|---|---|---|---|
| 1777320025 | 22.78° C | 30% | 1018.7 hPa | 0 mm | - | 0 W/m² | - |
| 1777318225 | 22.78° C | 30% | 1019 hPa | 0 mm | - | 0 W/m² | - |
| 1777316425 | 22.78° C | 33% | 1019.1 hPa | 0 mm | - | 0 W/m² | - |
| 1777314625 | 22.22° C | 30% | 1019.3 hPa | 0 mm | - | 0 W/m² | - |
| 1777312825 | 22.22° C | 33% | 1019.7 hPa | 0 mm | - | 0 W/m² | - |
| 1777311026 | 21.67° C | 35% | 1020.1 hPa | 0 mm | - | 0 W/m² | - |
| 1777309224 | 21.67° C | 37% | 1020.7 hPa | 0 mm | - | 0 W/m² | - |
| 1777307424 | 21.67° C | 36% | 1020.9 hPa | 0 mm | - | 0 W/m² | - |
| 1777305625 | 20° C | 41% | 1021.2 hPa | 0 mm | - | 0 W/m² | - |
| 1777303825 | 19.44° C | 44% | 1021.3 hPa | 0 mm | - | 0 W/m² | - |
| 1777302025 | 17.22° C | 51% | 1021.5 hPa | 0 mm | - | 0 W/m² | - |
| 1777300225 | 15.56° C | 56% | 1021.8 hPa | 0 mm | - | 0 W/m² | - |
| 1777298425 | 13.89° C | 57% | 1021.9 hPa | 0 mm | - | 0 W/m² | - |
| 1777296625 | 12.22° C | 61% | 1021.7 hPa | 0 mm | - | 0 W/m² | - |
| 1777294825 | 10° C | 73% | 1021.7 hPa | 0 mm | - | 0 W/m² | - |
| 1777293025 | 8.33° C | 80% | 1021.4 hPa | 0 mm | - | 0 W/m² | - |
| 1777291225 | 6.67° C | 85% | 1021.2 hPa | 0 mm | - | 0 W/m² | - |
| 1777289425 | 5.56° C | 89% | 1021 hPa | 0 mm | - | 0 W/m² | - |
| 1777287625 | 3.33° C | 91% | 1020.5 hPa | 0 mm | - | 0 W/m² | - |
| 1777285825 | 7.22° C | 86% | 1020.7 hPa | 0 mm | - | 0 W/m² | - |
| 1777284025 | 7.22° C | 86% | 1020.5 hPa | 0 mm | - | 0 W/m² | - |
| 1777282225 | 7.22° C | 86% | 1020.5 hPa | 0 mm | - | 0 W/m² | - |
| 1777280425 | 7.22° C | 86% | 1020.5 hPa | 0 mm | - | 0 W/m² | - |
| 1777278626 | 7.22° C | 86% | 1020.4 hPa | 0 mm | - | 0 W/m² | - |
| 1777276825 | 7.22° C | 86% | 1020.3 hPa | 0 mm | - | 0 W/m² | - |
* Rain latest hour (hover to see other rain measurements)
** Current wind speed in m/s (hover to see current wind gust speed)